Latest Weather Observations for Larapuna (Eddystone Point)

IDT60801

Issued at 4:21 pm EDT Tuesday 19 January 2021 (issued every 10 minutes, with the page automatically refreshed every 10 minutes)

About weather observations | Map of weather stations | Latest weather observations for TAS | Other Formats
Station Details ID: 092045 Name: LARAPUNA (EDDYSTONE POINT) Lat: -40.99 Lon: 148.35 Height: 19.7 m
Data from the previous 72 hours. | See also: Recent months at Larapuna (Eddystone Point)
Date/Time
EDT
Temp
°C
App
Temp
°C
Dew
Point
°C
Rel
Hum
%
Delta-T
°C
Wind Press
QNH
hPa
Press
MSL
hPa
Rain since
9am
mm
Dir  Spd
km/h
Gust
km/h
Spd
kts
Gust
kts
19/04:00pm 18.3 15.7 9.4 56 4.7 ESE 13 17 7 9 1021.2 1021.2 0.0
19/03:30pm 18.9 16.2 8.8 52 5.3 ESE 13 17 7 9 1021.1 1021.1 0.0
19/03:00pm 18.8 16.4 8.7 52 5.2 ESE 11 15 6 8 1020.9 1020.9 0.0
19/02:30pm 18.9 16.1 8.6 51 5.4 ESE 13 19 7 10 1020.7 1020.7 0.0
19/02:00pm 19.5 17.1 8.5 49 5.7 E 11 17 6 9 1020.5 1020.5 0.0
19/01:30pm 19.4 15.5 9.3 52 5.3 SE 20 28 11 15 1020.4 1020.4 0.0
19/01:00pm 19.4 16.0 9.0 51 5.4 SE 17 24 9 13 1020.3 1020.3 0.0
19/12:30pm 19.0 14.9 8.6 51 5.4 SSE 20 24 11 13 1020.2 1020.2 0.0
19/12:00pm 18.6 14.4 8.3 51 5.3 SSE 20 28 11 15 1020.2 1020.2 0.0
19/11:30am 18.3 13.7 8.0 51 5.3 SSE 22 30 12 16 1020.2 1020.2 0.0
19/11:00am 17.5 10.8 7.3 51 5.1 S 32 41 17 22 1020.3 1020.3 0.0
19/10:30am 17.6 12.5 7.6 52 5.1 S 24 30 13 16 1020.5 1020.5 0.0
19/10:00am 16.9 11.8 7.5 54 4.7 SSW 24 32 13 17 1020.1 1020.1 0.0
19/09:30am 15.7 10.5 7.2 57 4.2 SSW 24 33 13 18 1019.9 1019.9 0.0
19/09:00am 14.7 10.8 7.0 60 3.8 SW 17 20 9 11 1019.8 1019.8 0.0
19/08:30am 13.7 9.1 6.3 61 3.5 SW 20 26 11 14 1019.6 1019.6 0.0
19/08:00am 12.6 7.4 5.5 62 3.3 SW 22 28 12 15 1019.2 1019.2 0.0
19/07:30am 11.4 7.3 6.1 70 2.5 SW 17 20 9 11 1018.5 1018.5 0.0
19/07:00am 9.2 5.4 4.0 70 2.3 W 13 19 7 10 1017.9 1017.9 0.0
19/06:30am 8.3 5.2 3.6 72 2.0 WSW 9 17 5 9 1017.1 1017.1 0.0
19/06:00am 7.7 2.7 3.6 75 1.8 WNW 19 20 10 11 1016.5 1016.5 0.0
19/05:30am 8.6 4.6 2.6 66 2.5 WSW 13 17 7 9 1016.1 1016.1 0.0
19/05:00am 9.4 5.3 4.4 71 2.2 SW 15 19 8 10 1015.6 1015.6 0.0
19/04:30am 11.3 5.3 5.4 67 2.7 SSW 26 33 14 18 1014.9 1014.9 0.0
19/04:00am 11.6 6.2 6.3 70 2.5 SSW 24 35 13 19 1014.7 1014.7 0.0
19/03:30am 11.9 4.9 6.2 68 2.7 SSW 32 35 17 19 1014.2 1014.2 0.0
19/03:00am 11.9 4.8 6.4 69 2.6 SSW 33 43 18 23 1013.8 1013.8 0.0
19/02:30am 12.7 4.9 6.5 66 3.0 S 37 48 20 26 1013.4 1013.4 0.0
19/02:00am 12.8 3.7 5.9 63 3.3 SSW 43 48 23 26 1012.9 1012.9 0.0
19/01:30am 13.1 3.3 5.5 60 3.6 S 46 54 25 29 1012.4 1012.4 0.0
19/01:00am 13.5 2.3 5.7 59 3.7 S 54 63 29 34 1011.9 1011.9 0.0
19/12:30am 14.1 2.0 6.2 59 3.8 S 59 72 32 39 1011.2 1011.2 0.0
19/12:00am 14.6 3.9 8.1 65 3.3 S 54 61 29 33 1010.6 1010.6 0.0
 
Date/Time
EDT
Temp
°C
App
Temp
°C
Dew
Point
°C
Rel
Hum
%
Delta-T
°C
Wind Press
QNH
hPa
Press
MSL
hPa
Rain since
9am
mm
Dir  Spd
km/h
Gust
km/h
Spd
kts
Gust
kts
18/11:30pm 15.4 5.8 7.9 61 3.8 SSW 48 59 26 32 1010.2 1010.2 0.0
18/11:00pm 15.3 9.6 8.5 64 3.5 SW 28 44 15 24 1009.5 1009.5 0.0
18/10:30pm 15.2 10.7 10.2 72 2.6 SSW 24 41 13 22 1009.1 1009.1 0.0
18/10:00pm 15.1 11.9 11.9 81 1.7 WNW 20 26 11 14 1008.4 1008.4 0.0
18/09:30pm 16.1 11.4 12.1 77 2.2 WNW 28 37 15 20 1007.2 1007.2 0.0
18/09:00pm 16.9 11.6 12.4 75 2.5 WNW 32 44 17 24 1006.3 1006.3 0.0
18/08:30pm 17.6 12.4 13.3 76 2.4 WNW 33 46 18 25 1005.5 1005.5 0.0
18/08:00pm 18.4 13.4 13.3 72 2.9 WNW 32 54 17 29 1004.6 1004.6 0.0
18/07:54pm 18.7 13.7 13.3 71 3.1 WNW 32 54 17 29 1004.3 1004.3 0.0
18/07:30pm 19.6 16.1 14.4 72 3.0 NNW 26 37 14 20 1003.9 1003.9 0.0
18/07:00pm 20.0 16.3 15.0 73 2.9 NNW 28 39 15 21 1003.5 1003.5 0.0
18/06:30pm 20.5 15.4 15.7 74 2.9 NW 37 50 20 27 1003.2 1003.1 0.0
18/06:14pm 20.0 14.3 15.2 74 2.8 NW 39 57 21 31 1003.1 1003.0 0.0
18/06:00pm 20.3 14.9 14.9 71 3.2 WNW 37 52 20 28 1003.3 1003.3 0.0
18/05:35pm 20.7 15.4 15.3 71 3.2 WNW 37 56 20 30 1003.2 1003.1 0.0
18/05:30pm 20.5 14.8 15.3 72 3.1 WNW 39 56 21 30 1003.3 1003.3 0.0
18/05:04pm 20.7 15.0 15.3 71 3.2 WNW 39 57 21 31 1003.4 1003.4 0.0
18/05:00pm 20.6 14.4 14.9 70 3.4 WNW 41 57 22 31 1003.4 1003.4 0.0
18/04:30pm 20.7 14.0 15.0 70 3.4 WNW 44 67 24 36 1003.1 1003.0 0.0
18/04:03pm 21.5 15.4 16.2 72 3.2 WNW 43 61 23 33 1003.4 1003.4 0.0
18/04:00pm 21.0 14.5 15.5 71 3.3 NW 44 61 24 33 1003.4 1003.4 0.0
18/03:41pm 21.0 14.5 15.5 71 3.3 WNW 44 63 24 34 1003.5 1003.5 0.0
18/03:30pm 21.0 13.0 15.8 72 3.1 WNW 52 69 28 37 1003.4 1003.4 0.0
18/03:00pm 21.0 12.7 15.8 72 3.1 WNW 54 74 29 40 1003.5 1003.5 0.0
18/02:40pm 21.2 13.0 16.2 73 3.0 W 54 78 29 42 1003.5 1003.5 0.0
18/02:38pm 21.0 13.1 16.0 73 3.0 W 52 78 28 42 1003.6 1003.6 0.0
18/02:30pm 21.1 15.1 16.5 75 2.8 W 43 61 23 33 1003.6 1003.6 0.0
18/02:00pm 18.6 12.2 15.5 82 1.8 W 43 65 23 35 1003.8 1003.8 0.0
18/01:30pm 18.7 10.8 15.0 79 2.2 WNW 50 70 27 38 1004.3 1004.3 0.0
18/01:00pm 19.5 13.6 15.8 79 2.2 WNW 41 61 22 33 1004.3 1004.3 0.0
18/12:37pm 20.4 15.6 15.6 74 2.9 WNW 35 56 19 30 1004.9 1004.9 0.0
18/12:30pm 20.8 16.9 16.4 76 2.7 WNW 32 46 17 25 1004.8 1004.8 0.0
18/12:16pm 20.8 17.5 16.0 74 2.9 WNW 28 46 15 25 1004.8 1004.8 0.0
18/12:00pm 21.9 18.7 16.2 70 3.5 WNW 28 43 15 23 1005.3 1005.3 0.0
18/11:30am 21.6 17.7 15.4 68 3.7 WNW 30 43 16 23 1005.8 1005.8 0.0
18/11:00am 20.9 15.9 15.0 69 3.5 W 35 54 19 29 1006.0 1006.0 0.0
18/10:35am 20.2 14.8 15.0 72 3.1 WNW 37 56 20 30 1006.1 1006.1 0.0
18/10:30am 20.2 14.0 15.0 72 3.1 W 41 56 22 30 1006.2 1006.2 0.0
18/10:00am 19.5 12.8 14.7 74 2.8 W 43 70 23 38 1006.5 1006.5 0.0
18/09:30am 18.6 10.9 14.5 77 2.4 W 48 69 26 37 1006.3 1006.3 0.0
18/09:00am 17.9 11.4 15.0 83 1.7 W 43 67 23 36 1006.7 1006.7 0.0
18/08:58am 17.9 11.7 15.0 83 1.7 W 41 67 22 36 1006.9 1006.9 0.0
18/08:37am 17.4 13.7 15.0 86 1.4 W 28 46 15 25 1007.3 1007.3 0.0
18/08:30am 17.7 15.0 15.7 88 1.2 W 24 32 13 17 1007.4 1007.4 0.0
18/08:00am 16.6 16.3 16.4 99 0.1 NW 13 22 7 12 1007.7 1007.7 0.0
18/07:36am 15.8 12.2 15.2 96 0.3 WNW 28 50 15 27 1007.2 1007.2 0.0
18/07:30am 15.6 12.1 15.4 99 0.1 WNW 28 39 15 21 1007.2 1007.2 0.0
18/07:08am 15.2 10.7 15.0 99 0.1 WNW 32 50 17 27 1007.1 1007.1 0.0
18/07:00am 15.0 10.5 14.8 99 0.1 WNW 32 43 17 23 1007.3 1007.3 0.0
18/06:30am 14.8 10.0 14.6 99 0.1 WNW 33 46 18 25 1007.7 1007.7 0.0
18/06:08am 14.7 10.8 14.5 99 0.1 W 28 46 15 25 1008.1 1008.1 0.0
18/06:00am 14.7 12.0 14.5 99 0.1 W 22 39 12 21 1008.0 1008.0 0.0
18/05:30am 14.6 12.4 14.4 99 0.1 W 19 28 10 15 1007.8 1007.8 0.0
18/05:00am 14.7 10.1 14.5 99 0.1 WSW 32 44 17 24 1007.7 1007.7 0.0
18/04:30am 14.7 9.9 14.5 99 0.1 W 33 52 18 28 1007.1 1007.1 0.0
18/04:15am 14.8 9.3 14.6 99 0.1 W 37 56 20 30 1007.2 1007.2 0.0
18/04:00am 14.8 9.3 14.8 100 0.0 W 37 52 20 28 1007.4 1007.4 0.0
18/03:32am 14.7 10.9 14.7 100 0.0 W 28 46 15 25 1007.8 1007.8 0.0
18/03:30am 14.7 10.5 14.7 100 0.0 W 30 46 16 25 1007.8 1007.8 0.0
18/03:14am 14.6 10.8 14.6 100 0.0 W 28 46 15 25 1008.0 1008.0 0.0
18/03:00am 14.6 10.8 14.6 100 0.0 W 28 44 15 24 1007.9 1007.9 0.0
18/02:30am 14.6 9.8 14.6 100 0.0 WSW 33 50 18 27 1007.9 1007.9 0.0
18/02:13am 14.6 10.8 14.6 100 0.0 W 28 48 15 26 1007.8 1007.8 0.0
18/02:00am 14.6 11.9 14.6 100 0.0 W 22 39 12 21 1008.1 1008.1 0.0
18/01:37am 14.8 10.6 14.6 99 0.1 W 30 48 16 26 1007.9 1007.9 0.0
18/01:30am 14.8 10.2 14.6 99 0.1 W 32 41 17 22 1008.0 1008.0 0.0
18/01:19am 14.9 11.1 14.7 99 0.1 W 28 46 15 25 1008.0 1008.0 0.0
18/01:00am 14.9 11.1 14.7 99 0.1 W 28 41 15 22 1007.9 1007.9 0.0
18/12:49am 14.9 10.7 14.7 99 0.1 W 30 48 16 26 1008.0 1008.0 0.0
18/12:30am 15.0 10.9 14.8 99 0.1 W 30 46 16 25 1008.0 1008.0 0.0
18/12:09am 15.1 10.6 14.9 99 0.1 W 32 50 17 27 1008.1 1008.1 0.0
18/12:00am 15.1 10.6 14.9 99 0.1 W 32 46 17 25 1008.2 1008.2 0.0
 
Date/Time
EDT
Temp
°C
App
Temp
°C
Dew
Point
°C
Rel
Hum
%
Delta-T
°C
Wind Press
QNH
hPa
Press
MSL
hPa
Rain since
9am
mm
Dir  Spd
km/h
Gust
km/h
Spd
kts
Gust
kts
17/11:30pm 15.3 8.6 15.1 99 0.1 W 44 57 24 31 1007.7 1007.7 0.0
17/11:00pm 15.4 8.4 15.2 99 0.1 W 46 65 25 35 1007.6 1007.6 0.0
17/10:38pm 15.4 8.7 15.2 99 0.1 W 44 63 24 34 1007.9 1007.9 0.0
17/10:30pm 15.3 8.6 15.1 99 0.1 W 44 61 24 33 1007.9 1007.9 0.0
17/10:00pm 15.3 9.1 15.0 98 0.2 W 41 59 22 32 1007.9 1007.9 0.0
17/09:30pm 15.3 9.4 14.8 97 0.3 W 39 57 21 31 1008.2 1008.2 0.0
17/09:13pm 15.4 10.3 14.9 97 0.3 W 35 54 19 29 1008.0 1008.0 0.0
17/09:00pm 15.4 12.0 14.8 96 0.3 WNW 26 43 14 23 1008.0 1008.0 0.0
17/08:45pm 15.6 11.8 14.8 95 0.5 WNW 28 52 15 28 1008.2 1008.2 0.0
17/08:30pm 15.7 12.2 14.6 93 0.6 WNW 26 39 14 21 1008.2 1008.2 0.0
17/08:00pm 15.8 13.5 14.7 93 0.6 WNW 20 33 11 18 1008.2 1008.2 0.0
17/07:30pm 15.8 12.5 14.0 89 1.0 WNW 24 39 13 21 1008.0 1008.0 0.0
17/07:00pm 16.2 13.3 13.9 86 1.3 WNW 22 39 12 21 1008.2 1008.2 0.0
17/06:30pm 16.6 11.6 13.3 81 1.8 WNW 32 50 17 27 1008.1 1008.1 0.0
17/06:28pm 16.6 11.9 13.1 80 2.0 WNW 30 50 16 27 1008.0 1008.0 0.0
17/06:00pm 17.3 14.1 13.2 77 2.3 NW 22 33 12 18 1008.3 1008.3 0.0
17/05:30pm 17.8 15.9 13.1 74 2.6 WNW 15 28 8 15 1008.2 1008.2 0.0
17/05:00pm 17.8 14.9 12.9 73 2.7 WNW 20 33 11 18 1008.6 1008.6 0.0
17/04:30pm 18.1 12.7 12.3 69 3.2 WNW 32 56 17 30 1008.7 1008.7 0.0
17/04:26pm 18.4 13.5 12.6 69 3.2 WNW 30 56 16 30 1008.5 1008.5 0.0
17/04:00pm 18.2 12.5 12.9 71 3.0 WNW 35 46 19 25 1009.1 1009.1 0.0
17/03:30pm 18.0 13.0 12.2 69 3.2 WNW 30 52 16 28 1009.2 1009.2 0.0
17/03:02pm 18.3 11.5 11.8 66 3.6 NW 39 57 21 31 1009.0 1009.0 0.0
17/03:00pm 18.2 11.4 12.0 67 3.4 NW 39 54 21 29 1009.0 1009.0 0.0
17/02:30pm 17.8 10.1 11.6 67 3.4 WNW 43 57 23 31 1009.0 1009.0 0.0
17/02:00pm 20.4 14.7 12.9 62 4.3 WNW 35 52 19 28 1009.2 1009.2 0.0
17/01:47pm 20.9 15.6 12.6 59 4.7 W 32 50 17 27 1009.2 1009.2 0.0
17/01:30pm 21.4 16.2 12.8 58 4.9 W 32 46 17 25 1009.2 1009.2 0.0
17/01:06pm 19.2 13.3 11.0 59 4.5 W 33 52 18 28 1009.3 1009.3 0.0
17/01:00pm 18.0 11.6 10.6 62 4.0 W 35 48 19 26 1009.4 1009.4 0.0
17/12:30pm 19.2 14.6 11.0 59 4.5 W 26 37 14 20 1010.2 1010.2 0.0
17/12:12pm 18.1 12.5 10.0 59 4.3 W 30 48 16 26 1010.5 1010.5 0.0
17/12:00pm 17.7 11.4 9.8 60 4.2 WNW 33 46 18 25 1010.4 1010.4 0.0
17/11:51am 17.3 11.5 9.5 60 4.1 WNW 30 48 16 26 1010.4 1010.4 0.0
17/11:30am 16.6 11.5 9.1 61 3.9 W 26 43 14 23 1010.9 1010.9 0.0
17/11:00am 16.3 10.7 8.8 61 3.9 W 28 39 15 21 1011.1 1011.1 0.0
17/10:30am 14.5 9.5 8.2 66 3.2 W 24 39 13 21 1011.3 1011.3 0.0
17/10:00am 12.6 7.0 7.3 70 2.6 W 26 37 14 20 1011.3 1011.3 0.0
17/09:30am 12.5 8.1 7.2 70 2.6 W 20 28 11 15 1011.5 1011.5 0.0
17/09:00am 12.2 7.7 6.9 70 2.5 W 20 28 11 15 1011.3 1011.3 0.0
17/08:30am 12.3 8.8 7.0 70 2.5 W 15 22 8 12 1011.6 1011.6 0.0
17/08:00am 11.7 6.8 6.8 72 2.3 W 22 28 12 15 1011.2 1011.2 0.0
17/07:30am 11.8 6.5 6.7 71 2.4 W 24 30 13 16 1010.9 1010.9 0.0
17/07:00am 9.9 6.4 7.2 83 1.3 WNW 15 20 8 11 1010.9 1010.9 0.0
17/06:30am 8.5 4.4 6.1 85 1.1 W 17 20 9 11 1010.5 1010.5 0.0
17/06:00am 8.6 5.9 5.7 82 1.3 W 9 13 5 7 1010.5 1010.5 0.0
17/05:30am 9.2 4.6 5.8 79 1.6 W 19 22 10 12 1010.2 1010.2 0.0
17/05:00am 8.8 4.1 5.9 82 1.3 W 20 24 11 13 1009.8 1009.8 0.0
17/04:30am 8.4 3.9 5.9 84 1.1 W 19 24 10 13 1009.8 1009.8 0.0
17/04:00am 8.6 4.5 6.4 86 1.0 W 17 20 9 11 1009.6 1009.6 0.0
17/03:30am 9.7 5.0 6.1 78 1.7 WSW 20 24 11 13 1009.3 1009.3 0.0
17/03:00am 9.7 6.2 7.1 84 1.2 WSW 15 20 8 11 1009.4 1009.4 0.0
17/02:30am 10.0 6.3 6.2 77 1.8 WSW 15 19 8 10 1009.2 1009.2 0.0
17/02:00am 9.8 7.2 6.0 77 1.8 W 9 13 5 7 1008.9 1008.9 0.0
17/01:30am 11.3 7.4 7.0 75 2.1 SW 17 24 9 13 1008.6 1008.6 0.0
17/01:00am 12.3 7.5 7.4 72 2.4 SSW 22 30 12 16 1008.3 1008.3 0.0
17/12:30am 12.3 8.2 8.8 79 1.7 SSW 20 24 11 13 1008.2 1008.2 0.0
17/12:00am 12.4 8.6 9.2 81 1.6 SSW 19 20 10 11 1007.9 1007.9 0.0
 
Date/Time
EDT
Temp
°C
App
Temp
°C
Dew
Point
°C
Rel
Hum
%
Delta-T
°C
Wind Press
QNH
hPa
Press
MSL
hPa
Rain since
9am
mm
Dir  Spd
km/h
Gust
km/h
Spd
kts
Gust
kts
16/11:30pm 13.2 7.6 8.9 75 2.2 SW 28 33 15 18 1007.5 1007.5 0.0
16/11:00pm 13.7 7.3 9.2 74 2.3 SSW 33 41 18 22 1007.1 1007.1 0.0
16/10:30pm 14.5 6.8 10.3 76 2.2 SSW 41 46 22 25 1006.6 1006.6 0.0
16/10:00pm 14.9 7.1 9.7 71 2.7 S 41 46 22 25 1006.2 1006.2 0.0
16/09:30pm 15.6 7.1 9.1 65 3.3 SSW 44 52 24 28 1005.4 1005.4 0.0
16/09:00pm 15.6 8.9 11.0 74 2.5 SW 37 46 20 25 1004.8 1004.8 0.0
16/08:30pm 16.3 9.5 11.9 75 2.4 SSW 39 46 21 25 1004.2 1004.2 0.0
16/08:00pm 16.0 12.9 14.4 90 0.9 SSW 24 41 13 22 1003.6 1003.6 0.0
16/07:30pm 17.9 14.5 13.8 77 2.3 W 24 32 13 17 1002.7 1002.6 0.0
16/07:00pm 18.2 14.7 14.5 79 2.1 W 26 39 14 21 1002.2 1002.1 0.0
16/06:30pm 18.1 13.7 14.0 77 2.3 W 30 43 16 23 1001.6 1001.5 0.0
16/06:16pm 18.4 13.9 13.9 75 2.6 WNW 30 48 16 26 1001.5 1001.4 0.0
16/06:00pm 18.8 12.7 14.1 74 2.7 WNW 39 54 21 29 1001.5 1001.4 0.0
16/05:30pm 18.6 11.8 13.2 71 3.1 WNW 41 59 22 32 1001.4 1001.3 0.0
16/05:05pm 18.8 11.6 13.6 72 3.0 WNW 44 63 24 34 1001.6 1001.5 0.0
16/05:00pm 18.3 10.5 13.0 71 3.0 WNW 46 63 25 34 1001.5 1001.4 0.0
16/04:30pm 20.1 14.1 13.3 65 3.9 WNW 37 59 20 32 1001.4 1001.3 0.0

Other formats

Comma delimited format used in spreadsheet applications
http://www.bom.gov.au/fwo/IDT60801/IDT60801.94983.axf

JavaScript Object Notation format (JSON) in row-major order
http://www.bom.gov.au/fwo/IDT60801/IDT60801.94983.json

Data quality

Most of these data are generated automatically and are frequently updated. Quality checks on data are not normally performed. It is possible for incorrect values to appear. Refer to information at About Latest Weather Observations and please check the disclaimer before using these data.